Airport ID:KEDC
Update Time (UTC):13 NOV 19 00:37
Wind Speed (Knots):5
Wind Direction (Magnetic):360
Temperature (°C):2
Dew Point (°C):-9
Humidity (%):45
Altimeter (inHg):30.44
Density Altitude (Feet):
Visibility (Miles):10
Clouds (Hundreds of feet):CLR
Present Weather:NO PRECIPITATION
METAR:METAR KEDC 130035Z AUTO 01005KT 10SM CLR 02/M09 A3044 RMK AO2

The data displayed is for advisory purposes only and is not to be used for flight planning or operations.

This page is not automatically refreshed. Reload the page to see current data.